createdAt,value
2023-04-09T00:02:28.437Z,8.00
2023-04-09T00:04:57.334Z,8.00
2023-04-09T00:07:26.280Z,8.00
2023-04-09T00:09:55.274Z,8.10
2023-04-09T00:12:24.084Z,7.90
2023-04-09T00:14:53.004Z,7.10
2023-04-09T00:17:21.894Z,7.60
2023-04-09T00:19:50.587Z,7.50
2023-04-09T00:22:19.445Z,8.10
2023-04-09T00:24:48.188Z,9.20
2023-04-09T00:27:16.971Z,7.50
2023-04-09T00:29:45.708Z,7.90
2023-04-09T00:32:14.596Z,8.50
2023-04-09T00:34:43.666Z,7.70
2023-04-09T00:37:13.269Z,8.10
2023-04-09T00:39:42.297Z,8.60
2023-04-09T00:42:11.128Z,8.60
2023-04-09T00:44:40.435Z,8.80
2023-04-09T00:47:09.143Z,9.70
2023-04-09T00:49:37.854Z,10.50
2023-04-09T00:52:07.622Z,9.50
2023-04-09T00:54:36.538Z,10.00
2023-04-09T00:57:05.601Z,9.60
2023-04-09T00:59:34.555Z,10.30
2023-04-09T01:02:03.366Z,8.90
2023-04-09T01:04:32.844Z,8.80
2023-04-09T01:07:17.072Z,9.70
2023-04-09T01:09:54.227Z,8.60
2023-04-09T01:12:32.799Z,9.40
2023-04-09T01:15:07.037Z,9.50
2023-04-09T01:17:41.867Z,9.60
2023-04-09T01:20:18.880Z,9.50
2023-04-09T01:23:01.616Z,9.40
2023-04-09T01:25:45.720Z,9.00
2023-04-09T01:28:19.739Z,8.60
2023-04-09T01:30:52.925Z,9.10
2023-04-09T01:33:23.000Z,8.10
2023-04-09T01:35:52.588Z,9.30
2023-04-09T01:38:22.981Z,8.50
2023-04-09T01:40:53.402Z,9.10
2023-04-09T01:43:24.247Z,9.80
2023-04-09T01:45:53.954Z,8.70
2023-04-09T01:48:24.019Z,9.10
2023-04-09T01:50:54.172Z,8.50
2023-04-09T01:53:23.605Z,8.80
2023-04-09T01:55:52.252Z,8.10
2023-04-09T01:58:21.553Z,8.90
2023-04-09T02:00:52.113Z,8.10
2023-04-09T02:03:25.617Z,9.50
2023-04-09T02:06:00.312Z,8.70
2023-04-09T02:08:30.885Z,8.90
2023-04-09T02:11:04.412Z,8.50
2023-04-09T02:13:35.239Z,8.20
2023-04-09T02:16:05.705Z,9.20
2023-04-09T02:18:34.562Z,8.80
2023-04-09T02:21:05.239Z,8.80
2023-04-09T02:23:34.680Z,9.20
2023-04-09T02:26:03.710Z,9.00
2023-04-09T02:28:32.773Z,8.70
2023-04-09T02:31:02.404Z,8.60
2023-04-09T02:33:32.562Z,8.60
2023-04-09T02:36:01.348Z,8.20
2023-04-09T02:38:30.867Z,8.80
2023-04-09T02:41:00.559Z,9.10
2023-04-09T02:43:29.488Z,9.20
2023-04-09T02:45:58.887Z,9.00
2023-04-09T02:48:27.814Z,9.00
2023-04-09T02:50:56.761Z,8.20
2023-04-09T02:53:25.559Z,9.00
2023-04-09T02:55:54.765Z,9.10
2023-04-09T02:58:23.424Z,9.20
2023-04-09T03:00:52.179Z,7.70
2023-04-09T03:03:21.117Z,9.20
2023-04-09T03:05:50.266Z,8.90
2023-04-09T03:08:19.419Z,9.30
2023-04-09T03:10:48.307Z,9.20
2023-04-09T03:13:17.561Z,9.10
2023-04-09T03:15:46.480Z,9.10
2023-04-09T03:18:15.677Z,10.40
2023-04-09T03:20:44.800Z,10.30
2023-04-09T03:23:13.828Z,9.20
2023-04-09T03:25:51.339Z,10.10
2023-04-09T03:28:30.634Z,9.40
2023-04-09T03:31:10.075Z,9.00
2023-04-09T03:33:49.193Z,9.20
2023-04-09T03:36:18.340Z,8.50
2023-04-09T03:38:47.173Z,8.40
2023-04-09T03:41:16.407Z,8.80
2023-04-09T03:43:45.277Z,8.90
2023-04-09T03:46:14.669Z,9.20
2023-04-09T03:48:45.072Z,10.50
2023-04-09T03:51:14.561Z,10.90
2023-04-09T03:53:44.254Z,11.00
2023-04-09T03:56:13.067Z,11.50
2023-04-09T03:58:42.177Z,10.60
2023-04-09T04:01:11.548Z,10.30
2023-04-09T04:03:40.362Z,10.70
2023-04-09T04:06:09.620Z,11.30
2023-04-09T04:08:38.535Z,11.40
2023-04-09T04:11:07.906Z,11.30
2023-04-09T04:13:36.963Z,10.70
2023-04-09T04:16:10.148Z,10.20
2023-04-09T04:18:39.136Z,10.30
2023-04-09T04:21:14.839Z,9.60
2023-04-09T04:23:44.035Z,10.60
2023-04-09T04:26:13.336Z,10.60
2023-04-09T04:28:42.435Z,10.50
2023-04-09T04:31:12.538Z,10.70
2023-04-09T04:33:42.917Z,11.00
2023-04-09T04:36:13.604Z,11.60
2023-04-09T04:38:42.770Z,10.80
2023-04-09T04:41:13.076Z,11.30
2023-04-09T04:43:41.689Z,11.50
2023-04-09T04:46:10.689Z,11.70
2023-04-09T04:48:39.421Z,11.70
2023-04-09T04:51:08.913Z,11.70
2023-04-09T04:53:37.584Z,12.60
2023-04-09T04:56:07.442Z,11.70
2023-04-09T04:58:36.310Z,11.70
2023-04-09T05:01:05.226Z,11.70
2023-04-09T05:03:34.257Z,11.60
2023-04-09T05:06:03.359Z,11.60
2023-04-09T05:08:32.393Z,11.80
2023-04-09T05:11:01.754Z,12.20
2023-04-09T05:13:30.675Z,11.20
2023-04-09T05:15:59.425Z,13.20
2023-04-09T05:18:28.379Z,12.70
2023-04-09T05:20:57.107Z,13.20
2023-04-09T05:23:27.048Z,12.90
2023-04-09T05:25:55.668Z,13.20
2023-04-09T05:28:24.326Z,13.20
2023-04-09T05:30:53.132Z,14.50
2023-04-09T05:33:22.232Z,14.00
2023-04-09T05:35:51.080Z,12.40
2023-04-09T05:38:20.268Z,15.30
2023-04-09T05:40:49.450Z,12.00
2023-04-09T05:43:18.759Z,13.40
2023-04-09T05:45:48.068Z,13.60
2023-04-09T05:48:18.060Z,14.70
2023-04-09T05:50:55.151Z,13.70
2023-04-09T05:53:24.778Z,12.70
2023-04-09T05:55:53.657Z,14.20
2023-04-09T05:58:22.537Z,13.30
2023-04-09T06:00:52.274Z,13.90
2023-04-09T06:03:21.290Z,15.00
2023-04-09T06:05:50.437Z,14.80
2023-04-09T06:08:19.537Z,13.90
2023-04-09T06:10:48.723Z,14.50
2023-04-09T06:13:17.931Z,13.90
2023-04-09T06:15:46.737Z,18.30
2023-04-09T06:18:15.414Z,16.60
2023-04-09T06:20:44.285Z,17.90
2023-04-09T06:23:13.033Z,15.80
2023-04-09T06:25:41.889Z,14.70
2023-04-09T06:28:11.219Z,15.00
2023-04-09T06:30:40.180Z,16.10
2023-04-09T06:33:08.931Z,13.70
2023-04-09T06:35:37.933Z,14.70
2023-04-09T06:38:07.380Z,13.40
2023-04-09T06:40:36.635Z,16.70
2023-04-09T06:43:05.508Z,15.20
2023-04-09T06:45:34.991Z,15.00
2023-04-09T06:48:04.722Z,13.70
2023-04-09T06:50:33.935Z,13.90
2023-04-09T06:53:02.799Z,15.70
2023-04-09T06:55:31.881Z,13.60
2023-04-09T06:58:13.364Z,16.20
2023-04-09T07:00:45.138Z,14.60
2023-04-09T07:03:19.167Z,14.50
2023-04-09T07:05:56.702Z,15.60
2023-04-09T07:08:30.966Z,15.20
2023-04-09T07:11:00.752Z,15.60
2023-04-09T07:13:29.667Z,14.80
2023-04-09T07:15:58.746Z,14.90
2023-04-09T07:18:28.124Z,15.00
2023-04-09T07:20:56.907Z,15.50
2023-04-09T07:23:25.847Z,15.70
2023-04-09T07:25:55.548Z,15.90
2023-04-09T07:28:27.317Z,15.50
2023-04-09T07:31:03.599Z,15.90
2023-04-09T07:33:44.090Z,13.30
2023-04-09T07:36:13.591Z,15.40
2023-04-09T07:38:44.328Z,15.10
2023-04-09T07:41:13.339Z,14.00
2023-04-09T07:43:42.203Z,15.10
2023-04-09T07:46:11.515Z,16.40
2023-04-09T07:48:40.696Z,14.20
2023-04-09T07:51:11.650Z,13.70
2023-04-09T07:53:42.462Z,13.10
2023-04-09T07:56:12.012Z,13.50
2023-04-09T07:58:58.858Z,13.90
2023-04-09T08:01:31.066Z,12.10
2023-04-09T08:04:00.117Z,12.00
2023-04-09T08:06:29.211Z,11.00
2023-04-09T08:09:00.945Z,10.70
2023-04-09T08:11:29.805Z,10.90
2023-04-09T08:14:03.571Z,11.10
2023-04-09T08:16:42.694Z,10.30
2023-04-09T08:19:13.887Z,10.40
2023-04-09T08:21:49.263Z,10.50
2023-04-09T08:24:21.246Z,10.30
2023-04-09T08:26:50.073Z,10.70
2023-04-09T08:29:18.860Z,10.10
2023-04-09T08:31:48.250Z,9.40
2023-04-09T08:34:20.659Z,10.80
2023-04-09T08:36:49.518Z,10.00
2023-04-09T08:39:19.755Z,10.00
2023-04-09T08:41:48.833Z,10.20
2023-04-09T08:44:19.250Z,9.40
2023-04-09T08:46:48.010Z,9.80
2023-04-09T08:49:16.810Z,8.70
2023-04-09T08:51:48.471Z,6.30
2023-04-09T08:54:19.659Z,7.50
2023-04-09T08:56:48.850Z,7.90
2023-04-09T08:59:18.832Z,6.70
2023-04-09T09:01:53.809Z,7.60
2023-04-09T09:04:22.630Z,8.30
2023-04-09T09:06:54.723Z,9.90
2023-04-09T09:09:26.511Z,8.20
2023-04-09T09:11:55.605Z,8.40
2023-04-09T09:14:24.409Z,8.40
2023-04-09T09:17:07.783Z,7.80
2023-04-09T09:19:39.068Z,9.10
2023-04-09T09:22:10.607Z,9.00
2023-04-09T09:24:49.830Z,9.50
2023-04-09T09:27:40.269Z,8.50
2023-04-09T09:30:21.375Z,9.10
2023-04-09T09:32:53.433Z,8.20
2023-04-09T09:35:23.039Z,8.30
2023-04-09T09:38:03.824Z,8.30
2023-04-09T09:40:32.918Z,7.80
2023-04-09T09:43:02.294Z,8.30
2023-04-09T09:45:32.520Z,6.90
2023-04-09T09:48:01.986Z,8.80
2023-04-09T09:50:32.110Z,8.60
2023-04-09T09:53:05.184Z,9.20
2023-04-09T09:55:36.999Z,8.40
2023-04-09T09:58:16.692Z,8.50
2023-04-09T10:00:48.563Z,8.70
2023-04-09T10:03:23.717Z,7.70
2023-04-09T10:05:53.568Z,7.20
2023-04-09T10:08:23.686Z,7.90
2023-04-09T10:10:53.879Z,9.10
2023-04-09T10:13:29.394Z,8.70
2023-04-09T10:15:59.786Z,7.60
2023-04-09T10:18:28.941Z,7.80
2023-04-09T10:21:04.276Z,7.60
2023-04-09T10:23:38.135Z,7.40
2023-04-09T10:26:07.172Z,7.70
2023-04-09T10:28:38.580Z,6.90
2023-04-09T10:31:09.050Z,8.60
2023-04-09T10:33:39.606Z,8.60
2023-04-09T10:36:13.007Z,8.50
2023-04-09T10:38:56.783Z,8.20
2023-04-09T10:41:43.190Z,8.10
2023-04-09T10:44:34.367Z,8.00
2023-04-09T10:47:09.414Z,8.80
2023-04-09T10:49:50.256Z,8.80
2023-04-09T10:52:36.447Z,6.90
2023-04-09T10:55:21.625Z,8.30
2023-04-09T10:58:04.507Z,7.90
2023-04-09T11:00:41.729Z,8.40
2023-04-09T11:03:25.333Z,7.80
2023-04-09T11:06:02.308Z,8.10
2023-04-09T11:08:37.339Z,8.20
2023-04-09T11:11:06.962Z,7.70
2023-04-09T11:13:42.972Z,7.80
2023-04-09T11:16:24.807Z,8.70
2023-04-09T11:18:58.565Z,7.20
2023-04-09T11:21:39.099Z,7.50
2023-04-09T11:24:08.519Z,7.10
2023-04-09T11:26:41.205Z,7.50
2023-04-09T11:29:10.233Z,7.90
2023-04-09T11:31:39.602Z,6.90
2023-04-09T11:34:12.120Z,7.30
2023-04-09T11:36:41.192Z,7.70
2023-04-09T11:39:10.237Z,9.10
2023-04-09T11:41:43.015Z,8.90
2023-04-09T11:44:12.168Z,8.80
2023-04-09T11:46:56.815Z,9.50
2023-04-09T11:49:55.640Z,8.10
2023-04-09T11:52:39.192Z,8.80
2023-04-09T11:55:30.834Z,9.00
2023-04-09T11:58:07.831Z,8.90
2023-04-09T12:00:50.003Z,10.50
2023-04-09T12:04:03.327Z,9.50
2023-04-09T12:07:04.981Z,8.70
2023-04-09T12:10:01.565Z,9.40
2023-04-09T12:12:38.262Z,9.30
2023-04-09T12:15:32.797Z,9.60
2023-04-09T12:18:17.898Z,10.60
2023-04-09T12:21:07.932Z,8.30
2023-04-09T12:26:44.509Z,7.00
2023-04-09T12:29:48.739Z,9.20
2023-04-09T12:35:52.907Z,8.50
2023-04-09T12:38:36.067Z,7.80
2023-04-09T12:41:16.571Z,8.00
2023-04-09T12:44:01.330Z,8.40
2023-04-09T12:47:33.383Z,7.70
2023-04-09T12:50:32.612Z,7.60
2023-04-09T12:53:13.916Z,7.50
2023-04-09T12:56:00.268Z,7.30
2023-04-09T12:58:42.562Z,7.30
2023-04-09T13:01:21.988Z,7.30
2023-04-09T13:04:10.423Z,7.40
2023-04-09T13:07:17.873Z,6.70
2023-04-09T13:10:41.360Z,7.10
2023-04-09T13:16:30.986Z,7.80
2023-04-09T13:19:19.550Z,7.10
2023-04-09T13:22:14.765Z,7.20
2023-04-09T13:36:22.985Z,7.30
2023-04-09T13:39:45.818Z,7.20
2023-04-09T13:43:04.609Z,7.50
2023-04-09T13:50:36.198Z,6.80
2023-04-09T13:57:50.578Z,6.60
2023-04-09T14:00:25.678Z,6.40
2023-04-09T14:03:06.850Z,5.60
2023-04-09T14:06:40.074Z,6.20
2023-04-09T14:13:10.451Z,6.20
2023-04-09T14:15:41.892Z,5.50
2023-04-09T14:18:27.410Z,5.80
2023-04-09T14:21:25.494Z,5.20
2023-04-09T14:23:56.483Z,5.10
2023-04-09T14:26:31.704Z,5.80
2023-04-09T14:29:07.009Z,5.90
2023-04-09T14:31:44.428Z,6.10
2023-04-09T14:34:13.854Z,6.00
2023-04-09T14:36:50.194Z,5.80
2023-04-09T14:39:51.704Z,6.10
2023-04-09T14:42:36.412Z,5.80
2023-04-09T14:45:11.945Z,5.70
2023-04-09T14:47:50.402Z,5.90
2023-04-09T14:50:30.158Z,6.30
2023-04-09T14:53:04.289Z,5.70
2023-04-09T14:56:09.976Z,5.50
2023-04-09T15:01:33.376Z,5.30
2023-04-09T15:07:25.356Z,5.00
2023-04-09T15:09:59.709Z,4.70
2023-04-09T15:12:36.246Z,5.20
2023-04-09T15:15:28.000Z,6.10
2023-04-09T15:18:25.170Z,4.60
2023-04-09T15:21:03.778Z,5.00
2023-04-09T15:23:57.823Z,4.90
2023-04-09T15:26:51.721Z,7.10
2023-04-09T15:29:51.047Z,7.00
2023-04-09T15:32:38.049Z,7.60
2023-04-09T15:35:29.395Z,7.30
2023-04-09T15:38:34.598Z,7.60
2023-04-09T15:41:18.385Z,7.70
2023-04-09T15:44:01.271Z,7.70
2023-04-09T15:47:12.620Z,8.00
2023-04-09T15:50:09.965Z,7.80
2023-04-09T15:52:53.880Z,8.20
2023-04-09T15:55:48.966Z,8.50
2023-04-09T15:58:29.495Z,8.50
2023-04-09T16:02:39.578Z,8.30
2023-04-09T16:04:43.186Z,7.80
2023-04-09T16:07:52.437Z,7.80
2023-04-09T16:11:02.970Z,7.30
2023-04-09T16:14:02.866Z,7.90
2023-04-09T16:17:06.082Z,7.80
2023-04-09T16:19:51.498Z,8.30
2023-04-09T16:22:36.601Z,7.20
2023-04-09T16:29:01.006Z,6.80
2023-04-09T16:31:44.522Z,7.50
2023-04-09T16:34:32.581Z,6.50
2023-04-09T16:37:12.913Z,7.00
2023-04-09T16:39:49.188Z,7.90
2023-04-09T16:42:41.035Z,7.30
2023-04-09T16:45:28.732Z,6.60
2023-04-09T16:48:25.564Z,6.10
2023-04-09T16:51:24.757Z,6.80
2023-04-09T16:54:19.611Z,7.30
2023-04-09T16:57:25.407Z,7.40
2023-04-09T17:00:12.922Z,8.80
2023-04-09T17:02:46.160Z,8.80
2023-04-09T17:06:11.174Z,9.70
2023-04-09T17:09:06.906Z,8.70
2023-04-09T17:12:04.108Z,10.20
2023-04-09T17:18:25.535Z,12.70
2023-04-09T17:21:16.489Z,13.80
2023-04-09T17:23:46.668Z,12.80
2023-04-09T17:26:56.479Z,12.60
2023-04-09T17:29:37.782Z,12.10
2023-04-09T17:32:21.094Z,14.00
2023-04-09T17:35:08.625Z,13.90
2023-04-09T17:37:38.432Z,14.60
2023-04-09T17:40:16.590Z,15.00
2023-04-09T17:42:47.366Z,14.20
2023-04-09T17:45:32.360Z,13.80
2023-04-09T17:50:38.579Z,11.40
2023-04-09T17:53:32.204Z,11.20
2023-04-09T17:56:22.484Z,10.30
2023-04-09T17:58:54.597Z,10.30
2023-04-09T18:02:04.598Z,10.10
2023-04-09T18:12:00.272Z,12.10
2023-04-09T18:14:41.745Z,11.20
2023-04-09T18:21:19.374Z,11.60
2023-04-09T18:24:21.054Z,11.40
2023-04-09T18:26:58.165Z,10.20
2023-04-09T18:30:03.451Z,11.80
2023-04-09T18:32:58.052Z,10.50
2023-04-09T18:36:18.526Z,9.90
2023-04-09T18:39:56.435Z,12.60
2023-04-09T18:43:19.489Z,12.40
2023-04-09T18:46:07.692Z,12.80
2023-04-09T18:49:29.711Z,12.50
2023-04-09T18:52:03.985Z,10.60
2023-04-09T18:54:51.152Z,10.30
2023-04-09T18:57:20.895Z,10.20
2023-04-09T18:59:53.600Z,11.20
2023-04-09T19:02:25.824Z,11.20
2023-04-09T19:04:56.657Z,11.10
2023-04-09T19:07:27.492Z,12.70
2023-04-09T19:10:00.649Z,15.00
2023-04-09T19:12:30.290Z,15.50
2023-04-09T19:15:06.051Z,16.20
2023-04-09T19:17:47.685Z,16.10
2023-04-09T19:20:40.341Z,17.10
2023-04-09T19:23:16.197Z,15.10
2023-04-09T19:26:09.797Z,15.80
2023-04-09T19:28:46.913Z,15.40
2023-04-09T19:31:29.526Z,15.50
2023-04-09T19:34:08.676Z,15.40
2023-04-09T19:37:14.138Z,15.90
2023-04-09T19:40:43.851Z,16.20
2023-04-09T19:43:15.199Z,16.10
2023-04-09T19:45:46.921Z,17.30
2023-04-09T19:48:17.549Z,18.00
2023-04-09T19:50:51.094Z,17.40
2023-04-09T19:53:44.184Z,18.00
2023-04-09T19:56:16.184Z,18.50
2023-04-09T19:59:00.518Z,18.00
2023-04-09T20:01:38.412Z,17.10
2023-04-09T20:15:57.757Z,18.40
2023-04-09T20:20:15.767Z,14.80
2023-04-09T20:23:09.466Z,15.20
2023-04-09T20:30:07.252Z,15.50
2023-04-09T20:32:54.161Z,13.70
2023-04-09T20:36:37.560Z,13.20
2023-04-09T20:40:20.322Z,13.50
2023-04-09T21:02:10.436Z,9.90
2023-04-09T21:05:01.615Z,10.60
2023-04-09T21:07:58.633Z,10.70
2023-04-09T21:10:37.639Z,12.00
2023-04-09T21:13:29.211Z,13.70
2023-04-09T21:16:35.457Z,14.50
2023-04-09T21:22:11.303Z,9.90
2023-04-09T21:25:01.965Z,10.00
2023-04-09T21:28:00.643Z,9.10
2023-04-09T21:31:00.230Z,8.20
2023-04-09T21:34:07.272Z,7.50
2023-04-09T21:37:05.770Z,6.90
2023-04-09T21:40:23.047Z,7.30
2023-04-09T21:43:13.999Z,7.40
2023-04-09T21:46:37.671Z,7.90
2023-04-09T21:49:01.890Z,9.60
2023-04-09T21:52:01.829Z,11.10
2023-04-09T21:58:00.889Z,10.30
2023-04-09T22:01:02.262Z,10.10
2023-04-09T22:04:09.555Z,11.10
2023-04-09T22:10:21.119Z,10.70
2023-04-09T22:13:16.288Z,11.80
2023-04-09T22:16:00.251Z,10.90
2023-04-09T22:18:48.238Z,10.50
2023-04-09T22:21:34.140Z,10.00
2023-04-09T22:24:09.124Z,10.40
2023-04-09T22:26:57.136Z,12.00
2023-04-09T22:29:38.222Z,11.30
2023-04-09T22:32:53.722Z,11.10
2023-04-09T22:35:38.172Z,12.30
2023-04-09T22:38:15.796Z,12.20
2023-04-09T22:40:52.115Z,9.80
2023-04-09T22:43:40.665Z,10.60
2023-04-09T22:46:16.155Z,10.60
2023-04-09T22:48:47.348Z,10.30
2023-04-09T22:51:40.164Z,10.10
2023-04-09T22:54:16.086Z,11.40
2023-04-09T22:56:48.301Z,11.80
2023-04-09T22:59:21.335Z,11.30
2023-04-09T23:04:45.805Z,12.20
2023-04-09T23:07:20.388Z,11.30
2023-04-09T23:13:52.981Z,10.90
2023-04-09T23:16:37.376Z,11.40
2023-04-09T23:19:17.068Z,10.80
2023-04-09T23:21:49.700Z,12.40
2023-04-09T23:24:28.901Z,12.20
2023-04-09T23:27:16.041Z,11.10
2023-04-09T23:29:51.132Z,11.70
2023-04-09T23:32:36.458Z,12.10
2023-04-09T23:35:07.238Z,12.30
2023-04-09T23:37:42.974Z,12.90
2023-04-09T23:40:32.659Z,14.20
2023-04-09T23:43:05.584Z,14.70
2023-04-09T23:45:50.293Z,15.70
2023-04-09T23:48:23.057Z,14.60
2023-04-09T23:50:56.810Z,14.90
2023-04-09T23:53:31.455Z,13.80
2023-04-09T23:58:37.002Z,13.10
